Ana Sayfa
METAR-TAF:

METAR-TAF

Havaalanları :

Cidde, Suudi Arabistan

Enlem: 21-42N, Boylam: 039-11E, yükseklik: 15 m

Güncel hava durumu gözlemi

Rapor saat 07:00 UTC de 43 dakika önce yapıldı.
Rüzgar kuzey/kuzeybatıdan 7 kt
Sıcaklık 33°C
Nem 46%
Basınç 1008 hPa
Görüş mesafesi 10 km veya daha fazla
1500 m altında bulut yok ve kümülonimbus yok

METAR: OEJN 210700Z 33007KT CAVOK 33/20 Q1008 NOSIG

Saat: 10:43 (07:43 UTC)

Tahmin

Rapor saat 05:00 UTC de 2 saat ve 43 dakika önce yapıldı.
Ayın 21'si saat 06 UTC'den ayın 22'si saat 12 UTC'ye kadar geçerli Tahmin
Rüzgar batıdan 15 kt
Görüş mesafesi 10 km veya daha fazla
4000 ft yükseklikte az bulutlu
10000 ft yükseklikte parçalı bulutlu
Dönüşüyor
ayın 21'si saat 18 UTC'den ayın 21'si saat 20 UTC'ye kadar
Rüzgar doğudan 6 kt

TAF: OEJN 210500Z 2106/2212 28015KT 9999 FEW040 SCT100 BECMG 2118/2120 09006KT

4.000'den fazla havaalanı için hava durumu gözlemleri ve tahminleri (METAR ve TAF raporları).

Kullanılabilir istasyonlar harita üzerinde sarı ve kırmızı noktalarla gösterilir.

İstasyonun adını görmek için fareyi noktanın üzerinde gezdirin.

Sonrasında hava gözlem ve tahminlerini görmek için tıklayın.

Haritayı değiştirmek için: yaklaştırmak için siyah artı işaretli yeşil düğmeye ve uzaklaştırmak için de eksi işaretli düğmeye hızla tıklayın; bitişik haritalar için yeşil okları kullanın.


METAR-TAF: